Time;durP1;ratioP1;P1;durP2;ratioP2;P2;SDS_P1;SDS_P2;PMS_P1;PMS_P2;Temp;Humidity;BMP_temperature;BMP_pressure;BME280_temperature;BME280_humidity;BME280_pressure;Samples;Min_cycle;Max_cycle;Signal;HPM_P1;HPM_P2
2021/08/10 00:03:14;;;;;;;6.40;2.13;;;28.60;42.20;;;;;;21122999;27;82210;-70
2021/08/10 00:13:20;;;;;;;11.55;2.70;;;28.50;43.10;;;;;;21122817;27;81114;-67
2021/08/10 00:23:22;;;;;;;13.30;4.60;;;28.30;44.50;;;;;;21140478;27;83098;-68
2021/08/10 00:33:24;;;;;;;8.88;2.65;;;28.20;44.60;;;;;;21140004;27;80627;-67
2021/08/10 00:43:47;;;;;;;10.73;2.65;;;28.00;45.90;;;;;;21121160;27;80661;-68
2021/08/10 00:53:49;;;;;;;8.15;2.30;;;28.00;45.90;;;;;;21120846;27;81902;-65
2021/08/10 01:03:51;;;;;;;6.95;3.00;;;27.80;47.30;;;;;;21139211;27;83168;-67
2021/08/10 01:14:00;;;;;;;8.45;2.20;;;27.50;47.60;;;;;;21119647;27;81062;-69
2021/08/10 01:24:21;;;;;;;9.43;2.90;;;27.40;49.30;;;;;;21119580;27;80954;-71
2021/08/10 01:34:42;;;;;;;6.95;2.05;;;27.30;48.30;;;;;;21122886;27;81202;-67
2021/08/10 01:44:47;;;;;;;10.85;3.47;;;27.20;50.10;;;;;;21133957;27;81980;-66
2021/08/10 01:54:54;;;;;;;5.90;2.55;;;27.10;50.10;;;;;;21132052;27;80114;-69
2021/08/10 02:05:03;;;;;;;9.13;2.30;;;26.90;50.40;;;;;;21150080;27;80041;-67
2021/08/10 02:15:07;;;;;;;9.77;2.75;;;26.80;51.60;;;;;;21131043;27;81731;-67
2021/08/10 02:25:12;;;;;;;5.63;2.50;;;26.60;52.20;;;;;;21148153;27;81216;-68
2021/08/10 02:35:21;;;;;;;7.22;2.22;;;26.50;52.00;;;;;;21147179;27;80987;-67
2021/08/10 02:45:25;;;;;;;5.20;2.50;;;26.50;53.10;;;;;;21145370;27;81027;-70
2021/08/10 02:55:29;;;;;;;8.68;2.90;;;26.40;52.50;;;;;;21127577;27;81940;-71
2021/08/10 03:05:34;;;;;;;3.83;2.30;;;26.40;53.10;;;;;;21145333;27;81158;-72
2021/08/10 03:15:39;;;;;;;6.50;2.50;;;26.30;53.20;;;;;;21144902;27;81114;-70
2021/08/10 03:25:45;;;;;;;10.60;3.25;;;26.10;54.30;;;;;;21126114;27;81822;-69
2021/08/10 03:35:48;;;;;;;6.10;2.58;;;26.00;55.60;;;;;;21125084;27;80598;-70
2021/08/10 03:45:54;;;;;;;7.35;2.28;;;25.80;54.00;;;;;;21142464;27;80828;-71
2021/08/10 03:55:59;;;;;;;5.13;1.92;;;25.80;53.80;;;;;;21142134;27;80511;-68
2021/08/10 04:06:05;;;;;;;8.15;2.80;;;25.70;55.10;;;;;;21124908;27;82003;-67
2021/08/10 04:16:11;;;;;;;5.13;2.38;;;25.60;56.20;;;;;;21145624;27;82404;-68
2021/08/10 04:26:13;;;;;;;6.03;2.80;;;25.50;55.90;;;;;;21106934;27;82094;-72
2021/08/10 04:36:15;;;;;;;8.27;2.40;;;25.50;55.90;;;;;;21141058;27;81828;-71
2021/08/10 04:46:18;;;;;;;8.98;3.20;;;25.50;55.90;;;;;;21123374;27;79938;-66
2021/08/10 04:56:21;;;;;;;6.20;2.58;;;25.40;55.80;;;;;;21140439;27;80867;-70
2021/08/10 05:06:23;;;;;;;10.00;2.70;;;25.30;56.00;;;;;;21138269;27;80120;-74
2021/08/10 05:16:25;;;;;;;6.50;2.50;;;25.30;55.70;;;;;;21151073;27;80077;-72
2021/08/10 05:26:28;;;;;;;8.60;2.88;;;25.10;56.10;;;;;;21134697;27;80734;-69
2021/08/10 05:36:30;;;;;;;11.50;3.38;;;25.10;56.20;;;;;;21133540;27;81166;-67
2021/08/10 05:46:34;;;;;;;5.28;2.67;;;25.00;56.80;;;;;;21132431;27;81620;-66
2021/08/10 05:56:36;;;;;;;4.93;2.22;;;25.00;56.90;;;;;;21131327;27;80029;-69
2021/08/10 06:06:38;;;;;;;4.32;2.60;;;25.10;56.00;;;;;;21149477;27;82854;-70
2021/08/10 06:16:40;;;;;;;15.05;3.70;;;25.30;55.80;;;;;;21131058;27;80603;-68
2021/08/10 06:26:43;;;;;;;8.60;3.08;;;25.30;54.40;;;;;;21128409;27;80162;-67
2021/08/10 06:36:45;;;;;;;15.15;3.67;;;25.20;53.90;;;;;;21129090;27;80708;-66
2021/08/10 06:46:48;;;;;;;13.45;3.28;;;25.40;53.60;;;;;;21129256;27;80732;-65
2021/08/10 06:56:50;;;;;;;9.82;3.63;;;25.50;53.50;;;;;;21128270;27;80747;-67
2021/08/10 07:06:51;;;;;;;12.15;3.13;;;25.90;52.90;;;;;;21145705;27;80995;-65
2021/08/10 07:16:54;;;;;;;8.30;2.85;;;26.40;52.00;;;;;;21145974;27;80544;-68
2021/08/10 07:26:57;;;;;;;5.50;2.58;;;26.50;51.50;;;;;;21125318;27;81718;-66
2021/08/10 07:36:59;;;;;;;6.72;2.92;;;26.80;51.00;;;;;;21125245;27;81871;-71
2021/08/10 07:47:04;;;;;;;7.97;3.10;;;27.00;50.20;;;;;;21125422;27;80657;-66
2021/08/10 07:57:06;;;;;;;8.07;2.38;;;27.20;49.70;;;;;;21126903;27;80812;-71
2021/08/10 08:07:09;;;;;;;9.18;2.72;;;27.40;48.80;;;;;;21126747;27;81907;-65
2021/08/10 08:17:12;;;;;;;8.57;3.08;;;27.60;48.20;;;;;;21124141;27;80795;-65
2021/08/10 08:27:14;;;;;;;4.95;2.53;;;27.80;48.10;;;;;;21122039;27;80748;-72
2021/08/10 08:37:17;;;;;;;8.40;2.53;;;28.20;46.90;;;;;;21144273;27;81029;-67
2021/08/10 08:47:21;;;;;;;13.48;3.00;;;28.40;46.40;;;;;;21131142;27;80744;-69
2021/08/10 08:57:23;;;;;;;5.57;2.50;;;28.80;46.10;;;;;;21155329;27;81786;-68
2021/08/10 09:07:29;;;;;;;13.40;2.80;;;29.20;44.90;;;;;;21137437;27;80983;-69
2021/08/10 09:17:34;;;;;;;6.70;2.70;;;29.40;44.60;;;;;;21136812;27;80119;-69
2021/08/10 09:27:39;;;;;;;15.18;4.10;;;29.50;43.80;;;;;;21134899;27;82993;-63
2021/08/10 09:37:41;;;;;;;10.77;4.22;;;29.60;43.90;;;;;;21133926;27;81757;-69
2021/08/10 09:47:44;;;;;;;9.05;2.95;;;30.20;43.90;;;;;;21133265;27;80986;-66
2021/08/10 09:58:01;;;;;;;8.00;2.55;;;30.50;43.10;;;;;;21152237;27;82167;-70
2021/08/10 10:08:25;;;;;;;9.50;3.45;;;31.10;40.90;;;;;;21132890;27;80733;-64
2021/08/10 10:18:29;;;;;;;10.85;3.30;;;31.90;39.70;;;;;;21149328;27;81303;-65
2021/08/10 10:28:32;;;;;;;7.38;2.88;;;32.70;39.10;;;;;;21147897;27;80102;-68
2021/08/10 10:38:34;;;;;;;12.98;3.15;;;33.90;36.50;;;;;;21147712;27;80809;-66
2021/08/10 10:48:40;;;;;;;8.05;2.83;;;35.20;34.20;;;;;;21128914;27;80402;-64
2021/08/10 10:58:42;;;;;;;7.55;2.88;;;36.20;32.50;;;;;;21126864;27;80981;-64
2021/08/10 11:08:44;;;;;;;12.75;3.38;;;37.70;30.90;;;;;;21127175;27;80706;-70
2021/08/10 11:18:46;;;;;;;8.13;3.08;;;39.40;28.10;;;;;;21127143;27;81379;-68
2021/08/10 11:28:51;;;;;;;9.45;2.60;;;42.70;25.00;;;;;;21125659;27;81137;-68
2021/08/10 11:38:52;;;;;;;7.40;2.63;;;45.90;22.30;;;;;;21124937;27;80863;-64
2021/08/10 11:49:00;;;;;;;10.38;2.70;;;47.00;21.20;;;;;;21124885;27;81759;-63
2021/08/10 11:59:04;;;;;;;7.28;2.53;;;48.50;20.20;;;;;;21123610;27;80890;-66
2021/08/10 12:09:11;;;;;;;8.25;2.88;;;50.70;18.40;;;;;;21141930;27;81068;-66
2021/08/10 12:19:13;;;;;;;23.27;3.90;;;50.00;18.80;;;;;;21122991;27;80911;-64
2021/08/10 12:29:14;;;;;;;13.07;3.47;;;52.60;18.00;;;;;;21123337;27;80721;-63
2021/08/10 12:39:16;;;;;;;10.23;3.65;;;53.40;17.40;;;;;;21121633;27;80601;-66
2021/08/10 12:49:17;;;;;;;7.45;3.50;;;54.30;16.80;;;;;;21120519;27;81194;-65
2021/08/10 12:59:36;;;;;;;7.25;3.45;;;53.30;16.80;;;;;;21138567;27;80620;-66
2021/08/10 13:09:52;;;;;;;9.93;4.32;;;56.20;15.90;;;;;;21119591;27;80763;-67
2021/08/10 13:20:15;;;;;;;7.97;4.13;;;55.40;16.20;;;;;;21119046;27;80555;-64
2021/08/10 13:30:23;;;;;;;9.30;4.85;;;55.90;15.50;;;;;;21139023;27;81036;-66
2021/08/10 13:40:26;;;;;;;7.90;4.78;;;57.40;15.00;;;;;;21134057;27;82732;-66
2021/08/10 13:50:29;;;;;;;7.47;6.05;;;58.10;14.80;;;;;;21131898;27;80746;-68
2021/08/10 14:00:34;;;;;;;9.25;4.85;;;57.10;14.80;;;;;;21131414;27;80735;-64
2021/08/10 14:10:36;;;;;;;12.65;5.82;;;55.30;15.20;;;;;;21131784;27;80908;-73
2021/08/10 14:20:38;;;;;;;8.38;7.18;;;57.20;14.60;;;;;;21130974;27;79954;-64
2021/08/10 14:30:42;;;;;;;15.55;7.28;;;58.50;14.20;;;;;;21148002;27;80350;-71
2021/08/10 14:40:44;;;;;;;13.85;7.93;;;59.30;13.60;;;;;;21148367;27;81126;-63
2021/08/10 14:50:47;;;;;;;8.43;7.43;;;57.10;14.30;;;;;;21129136;27;80652;-63
2021/08/10 15:00:49;;;;;;;11.05;6.93;;;58.60;13.60;;;;;;21145651;27;80749;-65
2021/08/10 15:10:51;;;;;;;11.82;5.35;;;56.50;14.40;;;;;;21143888;27;80990;-66
2021/08/10 15:20:53;;;;;;;8.60;4.70;;;50.60;16.90;;;;;;21126543;27;82045;-63
2021/08/10 15:30:56;;;;;;;9.73;4.63;;;48.50;18.10;;;;;;21125781;27;80682;-64
2021/08/10 15:40:58;;;;;;;10.07;3.60;;;44.50;20.10;;;;;;21143219;27;81952;-64
2021/08/10 15:51:03;;;;;;;11.65;3.78;;;43.70;20.60;;;;;;21125060;27;79832;-64
2021/08/10 16:01:06;;;;;;;9.43;3.78;;;42.90;21.40;;;;;;21122773;27;82203;-70
2021/08/10 16:11:08;;;;;;;9.98;3.67;;;41.90;22.50;;;;;;21124417;27;81157;-65
2021/08/10 16:21:10;;;;;;;10.35;3.42;;;42.30;22.20;;;;;;21122460;27;80711;-64
2021/08/10 16:31:13;;;;;;;9.88;4.25;;;45.00;19.40;;;;;;21121458;27;82232;-66
2021/08/10 16:41:15;;;;;;;12.85;3.60;;;45.20;19.50;;;;;;21138624;27;80676;-63
2021/08/10 16:51:17;;;;;;;6.88;3.00;;;42.10;21.80;;;;;;21138364;27;80631;-64
2021/08/10 17:01:19;;;;;;;16.17;4.35;;;40.40;23.50;;;;;;21137540;27;80509;-63
2021/08/10 17:11:21;;;;;;;11.57;2.78;;;41.30;22.50;;;;;;21149135;27;81842;-65
2021/08/10 17:21:23;;;;;;;16.00;3.53;;;39.90;23.40;;;;;;21151964;27;80748;-64
2021/08/10 17:31:25;;;;;;;11.32;3.30;;;39.10;24.50;;;;;;21153955;27;82524;-64
2021/08/10 17:41:28;;;;;;;10.38;3.75;;;38.40;25.80;;;;;;21151032;27;82144;-64
2021/08/10 17:51:30;;;;;;;9.82;3.67;;;37.70;26.30;;;;;;21132085;27;80942;-65
2021/08/10 18:01:32;;;;;;;8.45;3.30;;;39.50;23.90;;;;;;21131646;27;81916;-73
2021/08/10 18:11:34;;;;;;;6.80;4.03;;;41.00;22.20;;;;;;21152303;27;81026;-67
2021/08/10 18:21:36;;;;;;;13.30;3.67;;;38.70;24.40;;;;;;21149276;27;80078;-65
2021/08/10 18:31:38;;;;;;;7.03;3.28;;;38.50;24.40;;;;;;21148726;27;80734;-68
2021/08/10 18:41:39;;;;;;;11.43;5.05;;;37.80;25.20;;;;;;21130240;27;80847;-65
2021/08/10 18:51:41;;;;;;;9.65;3.55;;;36.70;26.20;;;;;;21149096;27;81201;-67
2021/08/10 19:01:42;;;;;;;12.77;10.35;;;35.80;27.40;;;;;;21148773;27;80738;-67
2021/08/10 19:11:44;;;;;;;13.85;3.28;;;35.20;28.60;;;;;;21135261;27;82691;-67
2021/08/10 19:21:46;;;;;;;11.73;4.00;;;34.60;29.80;;;;;;21144895;27;83316;-69
2021/08/10 19:31:47;;;;;;;8.02;4.45;;;34.00;30.20;;;;;;21126450;27;80749;-65
2021/08/10 19:41:49;;;;;;;14.65;3.97;;;33.80;30.20;;;;;;21125736;27;80855;-67
2021/08/10 19:51:52;;;;;;;17.08;9.35;;;33.40;31.60;;;;;;21147192;27;84241;-66
2021/08/10 20:01:57;;;;;;;18.55;6.15;;;33.00;32.70;;;;;;21141979;27;80869;-69
2021/08/10 20:11:58;;;;;;;17.60;6.32;;;32.70;32.80;;;;;;21142459;27;80731;-64
2021/08/10 20:22:00;;;;;;;14.80;5.68;;;32.50;32.70;;;;;;21123423;27;81169;-71
2021/08/10 20:32:01;;;;;;;11.13;5.93;;;32.20;33.20;;;;;;21124418;27;81829;-66
2021/08/10 20:42:03;;;;;;;12.13;6.90;;;32.00;33.80;;;;;;21120910;27;80844;-69
2021/08/10 20:52:05;;;;;;;17.98;5.75;;;31.90;34.30;;;;;;21121172;27;80710;-68
2021/08/10 21:02:07;;;;;;;13.02;5.45;;;31.60;35.10;;;;;;21138714;27;80850;-69
2021/08/10 21:12:08;;;;;;;25.92;8.27;;;31.50;34.80;;;;;;21138554;27;80575;-70
2021/08/10 21:22:10;;;;;;;16.23;6.35;;;31.30;36.60;;;;;;21118837;27;80587;-67
2021/08/10 21:32:12;;;;;;;19.92;8.63;;;31.00;37.50;;;;;;21138290;27;80610;-69
2021/08/10 21:42:13;;;;;;;9.95;5.90;;;30.90;37.60;;;;;;21119301;27;80663;-63
2021/08/10 21:52:15;;;;;;;20.85;5.90;;;30.90;37.70;;;;;;21126223;27;81832;-68
2021/08/10 22:02:17;;;;;;;21.27;6.22;;;31.00;36.10;;;;;;21151889;27;81800;-69
2021/08/10 22:12:19;;;;;;;13.93;4.80;;;30.80;37.00;;;;;;21148523;27;80805;-66
2021/08/10 22:22:21;;;;;;;16.20;5.82;;;30.60;36.60;;;;;;21129347;27;80949;-69
2021/08/10 22:32:23;;;;;;;17.17;6.78;;;30.50;37.00;;;;;;21129427;27;80664;-66
2021/08/10 22:42:24;;;;;;;18.55;6.30;;;30.40;38.00;;;;;;21128389;27;79887;-65
2021/08/10 22:52:27;;;;;;;10.60;4.68;;;30.10;38.70;;;;;;21146937;27;81188;-66
2021/08/10 23:02:29;;;;;;;14.10;4.75;;;30.00;38.00;;;;;;21144188;27;81130;-67
2021/08/10 23:12:30;;;;;;;13.55;4.13;;;29.90;38.20;;;;;;21144711;27;80785;-64
2021/08/10 23:22:32;;;;;;;14.38;4.88;;;29.70;38.60;;;;;;21143767;27;81299;-66
2021/08/10 23:32:34;;;;;;;13.13;5.38;;;29.60;38.70;;;;;;21144155;27;80886;-66
2021/08/10 23:42:35;;;;;;;5.80;3.50;;;29.40;38.80;;;;;;21124399;27;80586;-65
2021/08/10 23:52:37;;;;;;;10.68;3.97;;;29.20;39.30;;;;;;21124747;27;81173;-66
